createdAt,value
2022-09-27T00:01:52.945Z,1.07
2022-09-27T00:03:56.407Z,0.83
2022-09-27T00:06:05.384Z,0.67
2022-09-27T00:08:09.412Z,0.80
2022-09-27T00:10:14.138Z,0.90
2022-09-27T00:12:16.846Z,0.70
2022-09-27T00:14:19.771Z,0.70
2022-09-27T00:16:22.719Z,0.77
2022-09-27T00:18:26.896Z,0.97
2022-09-27T00:20:29.666Z,0.80
2022-09-27T00:22:32.612Z,0.70
2022-09-27T00:24:35.532Z,0.70
2022-09-27T00:26:38.225Z,0.50
2022-09-27T00:28:41.311Z,1.10
2022-09-27T00:30:44.169Z,0.70
2022-09-27T00:32:46.946Z,0.67
2022-09-27T00:34:51.022Z,0.87
2022-09-27T00:36:55.480Z,1.27
2022-09-27T00:39:00.040Z,0.83
2022-09-27T00:41:02.839Z,0.70
2022-09-27T00:43:16.683Z,0.60
2022-09-27T00:45:19.447Z,0.70
2022-09-27T00:47:28.223Z,0.53
2022-09-27T00:49:35.270Z,0.77
2022-09-27T00:51:40.627Z,1.90
2022-09-27T00:53:47.031Z,0.70
2022-09-27T00:55:54.212Z,1.73
2022-09-27T00:57:57.764Z,0.73
2022-09-27T01:00:03.779Z,0.80
2022-09-27T01:02:08.181Z,0.70
2022-09-27T01:04:13.395Z,0.97
2022-09-27T01:06:17.732Z,1.20
2022-09-27T01:08:21.802Z,1.10
2022-09-27T01:10:26.597Z,0.63
2022-09-27T01:12:37.039Z,0.93
2022-09-27T01:14:49.900Z,0.73
2022-09-27T01:17:02.962Z,0.63
2022-09-27T01:19:15.195Z,0.73
2022-09-27T01:21:52.885Z,0.60
2022-09-27T01:24:10.409Z,3.57
2022-09-27T01:26:21.671Z,0.50
2022-09-27T01:28:40.221Z,2.00
2022-09-27T01:30:48.700Z,0.67
2022-09-27T01:33:13.235Z,1.07
2022-09-27T01:35:22.778Z,2.77
2022-09-27T01:37:38.208Z,0.47
2022-09-27T01:39:51.000Z,1.03
2022-09-27T01:42:02.644Z,0.40
2022-09-27T01:44:10.575Z,1.00
2022-09-27T01:46:21.991Z,0.40
2022-09-27T01:48:26.933Z,0.43
2022-09-27T01:50:35.012Z,0.57
2022-09-27T01:52:44.009Z,0.60
2022-09-27T01:54:52.831Z,0.60
2022-09-27T01:56:59.380Z,0.60
2022-09-27T01:59:06.842Z,0.60
2022-09-27T02:01:10.735Z,0.80
2022-09-27T02:03:18.233Z,0.63
2022-09-27T02:05:25.832Z,1.00
2022-09-27T02:07:33.747Z,0.60
2022-09-27T02:09:41.274Z,0.83
2022-09-27T02:11:52.863Z,0.73
2022-09-27T02:14:04.043Z,1.30
2022-09-27T02:16:21.348Z,0.77
2022-09-27T02:18:33.909Z,0.83
2022-09-27T02:20:43.372Z,4.83
2022-09-27T02:22:50.341Z,0.77
2022-09-27T02:24:57.995Z,1.50
2022-09-27T02:27:07.416Z,0.83
2022-09-27T02:29:12.705Z,2.00
2022-09-27T02:31:15.465Z,1.67
2022-09-27T02:33:21.423Z,1.10
2022-09-27T02:35:30.039Z,1.13
2022-09-27T02:37:33.647Z,1.10
2022-09-27T02:39:36.435Z,3.53
2022-09-27T02:41:39.263Z,0.93
2022-09-27T02:43:44.048Z,1.57
2022-09-27T02:45:55.666Z,1.20
2022-09-27T02:48:13.965Z,0.90
2022-09-27T02:50:51.246Z,1.20
2022-09-27T02:53:01.804Z,0.93
2022-09-27T02:55:13.060Z,1.47
2022-09-27T02:57:29.554Z,1.67
2022-09-27T02:59:42.044Z,1.23
2022-09-27T03:01:55.611Z,0.83
2022-09-27T03:04:05.877Z,1.37
2022-09-27T03:06:12.919Z,0.90
2022-09-27T03:08:16.382Z,1.77
2022-09-27T03:10:21.734Z,1.10
2022-09-27T03:12:26.850Z,1.03
2022-09-27T03:14:29.616Z,3.33
2022-09-27T03:16:32.408Z,1.60
2022-09-27T03:18:35.462Z,1.73
2022-09-27T03:20:38.179Z,1.57
2022-09-27T03:22:42.327Z,1.53
2022-09-27T03:24:45.402Z,2.60
2022-09-27T03:26:48.196Z,1.53
2022-09-27T03:28:51.038Z,3.63
2022-09-27T03:30:53.877Z,2.33
2022-09-27T03:32:56.632Z,1.67
2022-09-27T03:35:01.761Z,3.63
2022-09-27T03:37:04.532Z,1.87
2022-09-27T03:39:08.796Z,1.80
2022-09-27T03:41:11.581Z,2.63
2022-09-27T03:43:14.294Z,2.07
2022-09-27T03:45:17.269Z,2.23
2022-09-27T03:47:20.000Z,1.57
2022-09-27T03:49:22.761Z,1.40
2022-09-27T03:51:25.661Z,2.67
2022-09-27T03:53:28.432Z,4.73
2022-09-27T03:55:32.474Z,2.60
2022-09-27T03:57:35.284Z,2.17
2022-09-27T03:59:40.167Z,3.00
2022-09-27T04:01:44.615Z,2.40
2022-09-27T04:03:47.459Z,2.80
2022-09-27T04:05:50.212Z,4.03
2022-09-27T04:07:53.087Z,2.93
2022-09-27T04:09:55.836Z,3.23
2022-09-27T04:12:00.027Z,1.50
2022-09-27T04:14:05.104Z,5.67
2022-09-27T04:16:08.278Z,1.53
2022-09-27T04:18:10.981Z,2.87
2022-09-27T04:20:13.710Z,4.80
2022-09-27T04:22:16.421Z,3.40
2022-09-27T04:24:19.202Z,3.77
2022-09-27T04:26:22.261Z,3.07
2022-09-27T04:28:26.387Z,2.00
2022-09-27T04:30:29.501Z,4.43
2022-09-27T04:32:32.258Z,2.30
2022-09-27T04:34:51.645Z,3.37
2022-09-27T04:36:54.341Z,2.93
2022-09-27T04:38:58.159Z,4.63
2022-09-27T04:41:02.076Z,4.87
2022-09-27T04:43:05.289Z,4.53
2022-09-27T04:45:09.901Z,3.10
2022-09-27T04:47:12.809Z,3.53
2022-09-27T04:49:17.691Z,5.87
2022-09-27T04:51:21.017Z,4.03
2022-09-27T04:53:23.880Z,3.20
2022-09-27T04:55:27.619Z,3.73
2022-09-27T04:57:30.393Z,3.10
2022-09-27T04:59:33.118Z,3.50
2022-09-27T05:01:37.224Z,6.60
2022-09-27T05:03:40.011Z,3.47
2022-09-27T05:05:42.737Z,3.53
2022-09-27T05:07:45.444Z,6.13
2022-09-27T05:09:50.206Z,3.67
2022-09-27T05:11:53.024Z,6.10
2022-09-27T05:13:55.925Z,2.23
2022-09-27T05:16:04.007Z,4.27
2022-09-27T05:18:09.785Z,2.13
2022-09-27T05:20:12.502Z,2.27
2022-09-27T05:22:15.421Z,4.10
2022-09-27T05:24:18.413Z,1.70
2022-09-27T05:26:21.780Z,1.67
2022-09-27T05:28:25.162Z,1.07
2022-09-27T05:30:28.331Z,0.80
2022-09-27T05:32:31.088Z,4.70
2022-09-27T05:34:35.143Z,1.13
2022-09-27T05:36:38.220Z,2.30
2022-09-27T05:38:41.879Z,4.83
2022-09-27T05:40:47.127Z,1.80
2022-09-27T05:42:50.446Z,1.70
2022-09-27T05:44:53.259Z,5.20
2022-09-27T05:46:56.152Z,1.70
2022-09-27T05:48:58.987Z,1.57
2022-09-27T05:51:03.048Z,1.07
2022-09-27T05:53:06.189Z,1.00
2022-09-27T05:55:09.476Z,3.07
2022-09-27T05:57:12.475Z,1.77
2022-09-27T05:59:15.494Z,0.60
2022-09-27T06:01:18.637Z,1.03
2022-09-27T06:03:21.493Z,1.40
2022-09-27T06:05:25.290Z,1.53
2022-09-27T06:07:31.008Z,0.60
2022-09-27T06:09:33.709Z,1.30
2022-09-27T06:11:36.605Z,0.70
2022-09-27T06:13:39.999Z,2.03
2022-09-27T06:15:44.899Z,1.37
2022-09-27T06:17:47.612Z,1.77
2022-09-27T06:19:50.294Z,0.83
2022-09-27T06:21:53.034Z,3.13
2022-09-27T06:23:59.571Z,2.60
2022-09-27T06:26:04.021Z,1.60
2022-09-27T06:28:06.982Z,0.70
2022-09-27T06:30:14.841Z,1.47
2022-09-27T06:32:20.844Z,2.70
2022-09-27T06:34:23.601Z,1.33
2022-09-27T06:36:26.433Z,0.80
2022-09-27T06:38:29.205Z,1.73
2022-09-27T06:40:33.355Z,0.97
2022-09-27T06:42:36.084Z,2.20
2022-09-27T06:44:39.404Z,0.80
2022-09-27T06:46:42.831Z,1.33
2022-09-27T06:48:45.626Z,0.60
2022-09-27T06:50:49.062Z,2.07
2022-09-27T06:52:52.228Z,1.50
2022-09-27T06:54:54.934Z,1.93
2022-09-27T06:57:02.359Z,1.70
2022-09-27T06:59:23.199Z,3.30
2022-09-27T07:01:29.603Z,1.33
2022-09-27T07:03:38.907Z,3.47
2022-09-27T07:05:43.872Z,2.33
2022-09-27T07:07:47.893Z,2.60
2022-09-27T07:09:50.894Z,1.53
2022-09-27T07:11:55.240Z,1.43
2022-09-27T07:13:59.411Z,1.33
2022-09-27T07:16:02.888Z,0.90
2022-09-27T07:18:08.248Z,1.17
2022-09-27T07:20:11.713Z,1.70
2022-09-27T07:22:16.426Z,1.47
2022-09-27T07:24:19.190Z,1.07
2022-09-27T07:26:22.767Z,2.20
2022-09-27T07:28:25.742Z,1.20
2022-09-27T07:30:34.102Z,0.97
2022-09-27T07:32:37.649Z,0.77
2022-09-27T07:34:40.355Z,2.83
2022-09-27T07:36:43.160Z,0.70
2022-09-27T07:38:45.938Z,0.50
2022-09-27T07:40:48.770Z,0.60
2022-09-27T07:42:56.000Z,0.60
2022-09-27T07:44:59.064Z,1.03
2022-09-27T07:47:03.119Z,1.53
2022-09-27T07:49:06.784Z,1.13
2022-09-27T07:51:11.863Z,1.73
2022-09-27T07:53:15.060Z,1.57
2022-09-27T07:55:18.940Z,2.17
2022-09-27T07:57:23.525Z,1.70
2022-09-27T07:59:26.707Z,2.30
2022-09-27T08:01:29.466Z,2.70
2022-09-27T08:03:34.921Z,1.83
2022-09-27T08:05:38.024Z,4.23
2022-09-27T08:07:41.714Z,3.70
2022-09-27T08:09:44.449Z,2.53
2022-09-27T08:11:47.184Z,2.70
2022-09-27T08:13:52.586Z,3.67
2022-09-27T08:15:55.316Z,1.43
2022-09-27T08:17:58.023Z,3.20
2022-09-27T08:20:06.322Z,1.60
2022-09-27T08:22:09.643Z,3.20
2022-09-27T08:24:12.724Z,1.50
2022-09-27T08:26:15.514Z,5.77
2022-09-27T08:28:19.320Z,1.63
2022-09-27T08:30:22.011Z,1.20
2022-09-27T08:32:24.706Z,1.20
2022-09-27T08:34:28.306Z,1.30
2022-09-27T08:36:35.924Z,1.20
2022-09-27T08:38:38.628Z,3.20
2022-09-27T08:40:51.495Z,1.70
2022-09-27T08:43:02.515Z,2.50
2022-09-27T08:45:12.696Z,2.73
2022-09-27T08:47:19.204Z,3.83
2022-09-27T08:49:29.064Z,3.40
2022-09-27T08:51:34.954Z,1.60
2022-09-27T08:53:42.518Z,2.83
2022-09-27T08:55:50.437Z,1.43
2022-09-27T08:57:57.781Z,2.40
2022-09-27T09:00:06.236Z,3.07
2022-09-27T09:02:18.917Z,3.40
2022-09-27T09:04:31.976Z,3.60
2022-09-27T09:06:41.849Z,3.07
2022-09-27T09:09:01.942Z,2.87
2022-09-27T09:11:29.262Z,2.83
2022-09-27T09:13:45.023Z,0.73
2022-09-27T09:15:56.194Z,1.30
2022-09-27T09:18:21.112Z,6.67
2022-09-27T09:20:37.015Z,1.87
2022-09-27T09:22:54.115Z,1.87
2022-09-27T09:25:15.383Z,1.70
2022-09-27T09:27:25.120Z,1.40
2022-09-27T09:29:46.969Z,1.53
2022-09-27T09:31:57.540Z,2.20
2022-09-27T09:34:06.473Z,1.43
2022-09-27T09:36:20.296Z,2.47
2022-09-27T09:38:28.304Z,1.97
2022-09-27T09:40:37.280Z,1.03
2022-09-27T09:42:44.871Z,4.23
2022-09-27T09:44:55.116Z,7.03
2022-09-27T09:47:02.534Z,2.77
2022-09-27T09:49:15.352Z,2.97
2022-09-27T09:51:23.016Z,2.30
2022-09-27T09:53:35.314Z,1.47
2022-09-27T09:55:39.640Z,2.77
2022-09-27T09:57:50.098Z,1.60
2022-09-27T09:59:59.397Z,2.53
2022-09-27T10:02:19.056Z,3.00
2022-09-27T10:04:24.608Z,2.97
2022-09-27T10:06:29.681Z,2.43
2022-09-27T10:08:34.234Z,3.03
2022-09-27T10:10:36.969Z,3.73
2022-09-27T10:12:39.664Z,2.70
2022-09-27T10:14:43.302Z,3.30
2022-09-27T10:16:48.822Z,4.80
2022-09-27T10:18:56.249Z,1.97
2022-09-27T10:21:04.146Z,2.47
2022-09-27T10:23:14.072Z,2.97
2022-09-27T10:25:18.391Z,3.27
2022-09-27T10:27:21.417Z,2.50
2022-09-27T10:29:33.604Z,3.80
2022-09-27T10:31:41.785Z,3.63
2022-09-27T10:33:55.389Z,3.90
2022-09-27T10:35:58.426Z,4.03
2022-09-27T10:38:21.509Z,3.90
2022-09-27T10:40:33.632Z,4.07
2022-09-27T10:42:38.593Z,2.83
2022-09-27T10:44:41.329Z,2.37
2022-09-27T10:46:45.652Z,2.33
2022-09-27T10:48:48.401Z,1.97
2022-09-27T10:50:59.537Z,3.53
2022-09-27T10:53:04.704Z,2.43
2022-09-27T10:55:20.846Z,2.57
2022-09-27T10:57:28.112Z,3.13
2022-09-27T10:59:32.491Z,4.40
2022-09-27T11:01:45.449Z,1.67
2022-09-27T11:03:54.647Z,2.80
2022-09-27T11:05:59.406Z,4.33
2022-09-27T11:08:04.043Z,3.07
2022-09-27T11:10:25.102Z,3.13
2022-09-27T11:12:30.503Z,3.33
2022-09-27T11:14:33.568Z,2.80
2022-09-27T11:16:51.679Z,3.20
2022-09-27T11:19:10.885Z,3.13
2022-09-27T11:21:26.484Z,4.30
2022-09-27T11:24:01.813Z,6.27
2022-09-27T11:26:24.064Z,4.97
2022-09-27T11:28:39.959Z,4.67
2022-09-27T11:30:51.573Z,6.37
2022-09-27T11:33:21.761Z,5.13
2022-09-27T11:35:42.054Z,2.47
2022-09-27T11:37:51.510Z,1.50
2022-09-27T11:40:06.003Z,2.40
2022-09-27T11:42:25.544Z,1.20
2022-09-27T11:44:45.088Z,4.90
2022-09-27T11:46:53.861Z,3.03
2022-09-27T11:49:21.056Z,4.57
2022-09-27T11:51:38.252Z,3.43
2022-09-27T11:53:59.566Z,1.83
2022-09-27T11:56:13.420Z,0.87
2022-09-27T11:58:27.833Z,1.17
2022-09-27T12:00:47.744Z,2.20
2022-09-27T12:03:25.341Z,1.33
2022-09-27T12:05:36.278Z,2.03
2022-09-27T12:07:46.839Z,1.43
2022-09-27T12:09:53.903Z,2.43
2022-09-27T12:12:02.842Z,1.97
2022-09-27T12:14:09.963Z,1.90
2022-09-27T12:16:17.678Z,1.60
2022-09-27T12:18:28.557Z,1.63
2022-09-27T12:20:36.201Z,2.37
2022-09-27T12:22:59.023Z,1.93
2022-09-27T12:25:04.390Z,1.40
2022-09-27T12:27:14.967Z,4.40
2022-09-27T12:29:22.880Z,2.70
2022-09-27T12:31:32.479Z,2.83
2022-09-27T12:33:40.443Z,4.83
2022-09-27T12:35:48.494Z,4.43
2022-09-27T12:37:59.352Z,3.80
2022-09-27T12:40:07.910Z,3.53
2022-09-27T12:42:19.976Z,2.10
2022-09-27T12:44:25.472Z,3.80
2022-09-27T12:46:39.667Z,4.33
2022-09-27T12:48:50.549Z,3.40
2022-09-27T12:50:56.486Z,1.63
2022-09-27T12:53:05.362Z,4.03
2022-09-27T12:55:37.307Z,2.63
2022-09-27T12:57:50.130Z,2.30
2022-09-27T13:00:03.919Z,1.73
2022-09-27T13:03:14.844Z,3.53
2022-09-27T13:05:49.684Z,3.17
2022-09-27T13:08:05.294Z,1.57
2022-09-27T13:10:26.225Z,5.07
2022-09-27T13:12:30.341Z,2.47
2022-09-27T13:14:46.345Z,1.23
2022-09-27T13:16:51.347Z,1.30
2022-09-27T13:19:01.402Z,2.87
2022-09-27T13:21:06.328Z,3.70
2022-09-27T13:24:01.542Z,1.40
2022-09-27T13:26:21.368Z,2.37
2022-09-27T13:28:36.489Z,3.60
2022-09-27T13:30:48.126Z,1.43
2022-09-27T13:33:32.935Z,1.70
2022-09-27T13:35:37.533Z,2.30
2022-09-27T13:37:55.318Z,1.43
2022-09-27T13:40:27.461Z,2.93
2022-09-27T13:42:40.672Z,0.80
2022-09-27T13:44:56.756Z,1.10
2022-09-27T13:47:03.860Z,0.97
2022-09-27T13:49:16.193Z,2.10
2022-09-27T13:51:29.127Z,0.53
2022-09-27T13:53:35.621Z,1.10
2022-09-27T13:55:43.751Z,0.70
2022-09-27T13:57:52.455Z,2.83
2022-09-27T13:59:59.707Z,0.83
2022-09-27T14:02:14.430Z,1.57
2022-09-27T14:04:21.092Z,1.00
2022-09-27T14:06:30.176Z,1.20
2022-09-27T14:08:38.024Z,1.30
2022-09-27T14:10:44.484Z,2.60
2022-09-27T14:12:47.382Z,2.23
2022-09-27T14:14:51.487Z,1.93
2022-09-27T14:16:54.482Z,1.93
2022-09-27T14:18:59.520Z,1.40
2022-09-27T14:21:16.156Z,1.67
2022-09-27T14:23:24.054Z,2.43
2022-09-27T14:25:26.886Z,2.20
2022-09-27T14:27:31.517Z,1.00
2022-09-27T14:29:40.761Z,1.20
2022-09-27T14:31:43.814Z,1.57
2022-09-27T14:33:47.083Z,0.80
2022-09-27T14:36:08.787Z,1.50
2022-09-27T14:38:36.025Z,4.67
2022-09-27T14:40:43.571Z,1.27
2022-09-27T14:42:46.860Z,1.57
2022-09-27T14:44:51.078Z,1.13
2022-09-27T14:47:10.127Z,1.07
2022-09-27T14:49:20.003Z,1.20
2022-09-27T14:51:28.023Z,1.97
2022-09-27T14:53:32.744Z,0.80
2022-09-27T14:55:35.742Z,1.97
2022-09-27T14:57:41.772Z,1.53
2022-09-27T14:59:46.998Z,0.83
2022-09-27T15:01:51.282Z,1.00
2022-09-27T15:03:54.617Z,1.33
2022-09-27T15:05:59.643Z,0.80
2022-09-27T15:08:05.799Z,2.27
2022-09-27T15:10:14.539Z,1.13
2022-09-27T15:12:25.382Z,2.07
2022-09-27T15:14:33.048Z,1.73
2022-09-27T15:16:36.539Z,1.30
2022-09-27T15:18:44.050Z,1.87
2022-09-27T15:20:54.515Z,1.50
2022-09-27T15:22:58.638Z,1.83
2022-09-27T15:25:07.434Z,1.97
2022-09-27T15:27:18.575Z,1.30
2022-09-27T15:29:23.382Z,3.40
2022-09-27T15:31:32.158Z,4.83
2022-09-27T15:33:35.816Z,7.57
2022-09-27T15:35:38.605Z,2.57
2022-09-27T15:37:41.572Z,2.07
2022-09-27T15:39:45.724Z,1.23
2022-09-27T15:42:09.873Z,1.00
2022-09-27T15:44:40.393Z,1.17
2022-09-27T15:46:46.563Z,1.70
2022-09-27T15:49:30.180Z,0.83
2022-09-27T15:51:51.106Z,2.00
2022-09-27T15:53:53.896Z,2.10
2022-09-27T15:55:56.653Z,1.10
2022-09-27T15:58:02.563Z,1.20
2022-09-27T16:00:07.099Z,1.87
2022-09-27T16:02:16.846Z,1.90
2022-09-27T16:04:19.676Z,1.50
2022-09-27T16:06:26.616Z,3.43
2022-09-27T16:08:30.117Z,1.33
2022-09-27T16:10:39.223Z,1.80
2022-09-27T16:12:42.034Z,2.37
2022-09-27T16:14:44.784Z,2.03
2022-09-27T16:16:51.168Z,3.80
2022-09-27T16:18:54.000Z,1.83
2022-09-27T16:20:58.208Z,1.80
2022-09-27T16:23:03.070Z,2.47
2022-09-27T16:25:06.619Z,3.30
2022-09-27T16:27:09.330Z,2.57
2022-09-27T16:29:14.241Z,2.87
2022-09-27T16:31:18.388Z,4.80
2022-09-27T16:33:21.273Z,2.60
2022-09-27T16:35:25.148Z,2.20
2022-09-27T16:37:30.192Z,2.90
2022-09-27T16:39:34.393Z,4.00
2022-09-27T16:41:38.669Z,4.30
2022-09-27T16:43:41.423Z,2.93
2022-09-27T16:45:44.167Z,4.03
2022-09-27T16:47:46.904Z,3.47
2022-09-27T16:50:07.224Z,3.00
2022-09-27T16:52:10.409Z,4.03
2022-09-27T16:54:15.812Z,3.80
2022-09-27T16:56:20.420Z,4.13
2022-09-27T16:58:23.167Z,2.70
2022-09-27T17:00:26.419Z,2.20
2022-09-27T17:02:29.356Z,1.87
2022-09-27T17:04:32.292Z,3.03
2022-09-27T17:06:35.172Z,2.57
2022-09-27T17:08:38.102Z,2.90
2022-09-27T17:10:46.240Z,5.70
2022-09-27T17:12:51.218Z,3.67
2022-09-27T17:14:54.084Z,5.80
2022-09-27T17:16:57.110Z,6.43
2022-09-27T17:19:00.203Z,2.90
2022-09-27T17:21:03.473Z,2.43
2022-09-27T17:23:06.281Z,5.00
2022-09-27T17:25:10.179Z,4.43
2022-09-27T17:27:13.219Z,3.57
2022-09-27T17:29:19.354Z,3.07
2022-09-27T17:31:22.382Z,7.23
2022-09-27T17:33:25.144Z,61.43
2022-09-27T17:35:27.977Z,93.37
2022-09-27T17:37:30.861Z,59.03
2022-09-27T17:39:33.733Z,31.23
2022-09-27T17:41:40.078Z,28.30
2022-09-27T17:43:50.311Z,16.77
2022-09-27T17:45:54.660Z,8.47
2022-09-27T17:48:15.505Z,6.53
2022-09-27T17:50:28.516Z,4.40
2022-09-27T17:52:35.808Z,7.57
2022-09-27T17:54:38.675Z,4.17
2022-09-27T17:56:43.305Z,4.30
2022-09-27T17:58:49.865Z,4.63
2022-09-27T18:00:57.329Z,4.83
2022-09-27T18:03:03.389Z,4.37
2022-09-27T18:05:06.873Z,3.83
2022-09-27T18:07:13.086Z,3.90
2022-09-27T18:09:17.877Z,5.20
2022-09-27T18:11:25.258Z,4.60
2022-09-27T18:13:29.005Z,4.40
2022-09-27T18:15:31.738Z,6.67
2022-09-27T18:17:36.854Z,3.60
2022-09-27T18:19:39.657Z,6.47
2022-09-27T18:21:42.644Z,5.10
2022-09-27T18:23:45.851Z,5.00
2022-09-27T18:25:55.126Z,4.23
2022-09-27T18:27:57.933Z,5.00
2022-09-27T18:30:03.368Z,3.23
2022-09-27T18:32:06.198Z,4.00
2022-09-27T18:34:10.610Z,4.27
2022-09-27T18:36:15.427Z,3.83
2022-09-27T18:38:18.199Z,5.80
2022-09-27T18:40:38.019Z,4.50
2022-09-27T18:42:43.863Z,3.00
2022-09-27T18:44:46.692Z,6.50
2022-09-27T18:46:51.768Z,2.57
2022-09-27T18:48:54.850Z,4.20
2022-09-27T18:50:59.080Z,4.60
2022-09-27T18:53:01.901Z,5.33
2022-09-27T18:55:04.979Z,8.50
2022-09-27T18:57:07.843Z,1.77
2022-09-27T18:59:11.825Z,2.73
2022-09-27T19:01:16.811Z,3.70
2022-09-27T19:03:19.681Z,5.50
2022-09-27T19:05:22.560Z,4.43
2022-09-27T19:07:26.822Z,2.93
2022-09-27T19:09:29.622Z,2.43
2022-09-27T19:11:33.016Z,1.30
2022-09-27T19:13:46.132Z,1.77
2022-09-27T19:15:56.638Z,2.20
2022-09-27T19:17:59.473Z,1.70
2022-09-27T19:20:02.963Z,3.27
2022-09-27T19:22:05.778Z,5.87
2022-09-27T19:24:09.858Z,3.63
2022-09-27T19:26:14.611Z,3.67
2022-09-27T19:28:18.049Z,15.23
2022-09-27T19:30:21.284Z,7.87
2022-09-27T19:32:24.023Z,4.93
2022-09-27T19:34:26.744Z,4.67
2022-09-27T19:36:29.755Z,14.13
2022-09-27T19:38:32.876Z,10.57
2022-09-27T19:40:36.969Z,8.20
2022-09-27T19:42:39.788Z,16.73
2022-09-27T19:44:42.831Z,18.67
2022-09-27T19:46:46.032Z,7.63
2022-09-27T19:48:50.334Z,3.70
2022-09-27T19:50:59.804Z,2.40
2022-09-27T19:53:02.511Z,2.60
2022-09-27T19:55:06.193Z,6.70
2022-09-27T19:57:10.260Z,4.60
2022-09-27T19:59:13.328Z,4.07
2022-09-27T20:01:19.223Z,5.60
2022-09-27T20:03:22.105Z,3.67
2022-09-27T20:05:24.906Z,4.30
2022-09-27T20:07:27.610Z,3.77
2022-09-27T20:09:30.352Z,3.00
2022-09-27T20:11:33.988Z,3.53
2022-09-27T20:13:39.057Z,5.23
2022-09-27T20:15:43.572Z,4.20
2022-09-27T20:17:46.416Z,4.33
2022-09-27T20:19:49.337Z,4.10
2022-09-27T20:21:52.130Z,4.07
2022-09-27T20:23:56.160Z,4.27
2022-09-27T20:26:02.996Z,3.20
2022-09-27T20:28:05.763Z,3.07
2022-09-27T20:30:11.708Z,3.70
2022-09-27T20:32:29.770Z,3.20
2022-09-27T20:34:32.616Z,4.37
2022-09-27T20:36:38.542Z,3.70
2022-09-27T20:38:42.083Z,4.00
2022-09-27T20:40:45.104Z,7.07
2022-09-27T20:42:48.730Z,4.10
2022-09-27T20:44:54.361Z,3.87
2022-09-27T20:46:58.856Z,3.40
2022-09-27T20:49:03.415Z,4.60
2022-09-27T20:51:06.975Z,5.30
2022-09-27T20:53:09.939Z,4.80
2022-09-27T20:55:12.789Z,4.33
2022-09-27T20:57:15.907Z,4.93
2022-09-27T20:59:21.359Z,3.83
2022-09-27T21:01:26.066Z,3.30
2022-09-27T21:03:30.277Z,6.13
2022-09-27T21:05:33.052Z,2.90
2022-09-27T21:07:35.948Z,3.70
2022-09-27T21:09:38.923Z,3.00
2022-09-27T21:11:44.231Z,4.97
2022-09-27T21:13:51.665Z,3.50
2022-09-27T21:15:54.530Z,3.43
2022-09-27T21:17:57.743Z,3.20
2022-09-27T21:20:02.469Z,3.60
2022-09-27T21:22:05.270Z,2.77
2022-09-27T21:24:08.288Z,2.50
2022-09-27T21:26:13.946Z,3.43
2022-09-27T21:28:17.173Z,3.67
2022-09-27T21:30:19.994Z,2.80
2022-09-27T21:32:22.836Z,3.93
2022-09-27T21:34:25.724Z,3.43
2022-09-27T21:36:31.764Z,3.00
2022-09-27T21:38:35.442Z,3.70
2022-09-27T21:40:38.254Z,3.30
2022-09-27T21:42:41.412Z,3.50
2022-09-27T21:44:44.151Z,3.93
2022-09-27T21:46:46.872Z,4.23
2022-09-27T21:48:51.324Z,3.27
2022-09-27T21:50:54.045Z,2.63
2022-09-27T21:53:00.963Z,4.20
2022-09-27T21:55:06.181Z,2.80
2022-09-27T21:57:08.883Z,3.63
2022-09-27T21:59:18.278Z,3.27
2022-09-27T22:01:22.914Z,3.30
2022-09-27T22:03:25.667Z,2.97
2022-09-27T22:05:28.637Z,4.30
2022-09-27T22:07:31.454Z,4.37
2022-09-27T22:09:35.580Z,4.33
2022-09-27T22:11:40.101Z,3.50
2022-09-27T22:13:42.827Z,2.93
2022-09-27T22:15:45.673Z,4.37
2022-09-27T22:17:48.435Z,3.63
2022-09-27T22:19:51.198Z,3.67
2022-09-27T22:21:53.854Z,6.00
2022-09-27T22:23:57.839Z,2.70
2022-09-27T22:26:12.878Z,3.03
2022-09-27T22:28:15.630Z,3.77
2022-09-27T22:30:18.541Z,3.10
2022-09-27T22:32:21.304Z,3.87
2022-09-27T22:34:29.753Z,4.10
2022-09-27T22:36:33.351Z,2.50
2022-09-27T22:38:36.177Z,2.73
2022-09-27T22:40:38.894Z,3.40
2022-09-27T22:42:42.960Z,2.80
2022-09-27T22:44:45.736Z,3.43
2022-09-27T22:46:48.598Z,4.33
2022-09-27T22:48:51.402Z,4.50
2022-09-27T22:50:54.095Z,2.60
2022-09-27T22:52:56.771Z,3.13
2022-09-27T22:54:59.467Z,4.77
2022-09-27T22:57:02.514Z,6.30
2022-09-27T22:59:06.793Z,8.33
2022-09-27T23:01:10.526Z,5.07
2022-09-27T23:03:13.297Z,7.43
2022-09-27T23:05:16.087Z,5.47
2022-09-27T23:07:18.760Z,7.73
2022-09-27T23:09:21.550Z,4.40
2022-09-27T23:11:24.411Z,5.43
2022-09-27T23:13:31.443Z,6.90
2022-09-27T23:15:35.672Z,7.43
2022-09-27T23:17:38.529Z,5.60
2022-09-27T23:19:41.219Z,5.80
2022-09-27T23:21:43.937Z,4.00
2022-09-27T23:23:49.584Z,5.47
2022-09-27T23:25:59.076Z,6.03
2022-09-27T23:28:02.072Z,3.50
2022-09-27T23:30:05.312Z,4.33
2022-09-27T23:32:09.337Z,5.00
2022-09-27T23:34:14.771Z,5.10
2022-09-27T23:36:19.681Z,3.60
2022-09-27T23:38:22.437Z,5.63
2022-09-27T23:40:25.675Z,5.53
2022-09-27T23:42:28.392Z,9.77
2022-09-27T23:44:31.311Z,5.20
2022-09-27T23:46:34.080Z,5.57
2022-09-27T23:48:38.818Z,6.00
2022-09-27T23:50:44.125Z,7.10
2022-09-27T23:52:46.915Z,7.53
2022-09-27T23:54:50.236Z,4.37
2022-09-27T23:56:52.921Z,6.10
2022-09-27T23:58:55.592Z,5.20
